WetterOnline ( http://www.wetteronline.de )

Wetter aktuell Schleiz

Aktuelles Wetter: Schleiz (502m)

6-stündlich | Neueste Meldungen
Ortszeit Temperatur Wetter
Do, 18.10. 20:00 11.5° C bedeckt
Do, 18.10. 14:00 15.3° C bewölkt
Do, 18.10. 8:00 7.7° C bedeckt
Do, 18.10. 2:00 9.6° C wolkenlos
Mi, 17.10. 20:00 13.8° C fast wolkenlos
Mi, 17.10. 14:00 18.2° C leicht bewölkt
Mi, 17.10. 8:00 7.9° C fast wolkenlos
Mi, 17.10. 2:00 12.0° C wolkig
Ortszeit Temperatur Wetter
Fr, 19.10. 1:30 11.0° C bedeckt
Fr, 19.10. 1:20 11.0° C bedeckt
Fr, 19.10. 1:10 11.0° C bedeckt
Fr, 19.10. 1:00 11.0° C bedeckt
Fr, 19.10. 0:50 11.0° C bedeckt
Fr, 19.10. 0:40 10.9° C bedeckt
Fr, 19.10. 0:30 10.8° C bedeckt
Fr, 19.10. 0:00 11.0° C bedeckt
Do, 18.10. 23:30 11.2° C bewölkt
Do, 18.10. 23:00 11.2° C bedeckt
Do, 18.10. 22:30 11.2° C bedeckt
Ortszeit Relative Feuchte Sichtweite
Do, 18.10. 20:00 92% 5.0 km
Do, 18.10. 14:00 69% 14 km
Do, 18.10. 8:00 91% 5.0 km
Do, 18.10. 2:00 91% 9 km
Mi, 17.10. 20:00 74% 5.0 km
Mi, 17.10. 14:00 50% -
Mi, 17.10. 8:00 95% 4.6 km
Mi, 17.10. 2:00 77% 10 km
Ortszeit Relative Feuchte Sichtweite
Fr, 19.10. 1:30 95% 4.5 km
Fr, 19.10. 1:20 95% -
Fr, 19.10. 1:10 95% -
Fr, 19.10. 1:00 96% 4.0 km
Fr, 19.10. 0:50 96% -
Fr, 19.10. 0:40 97% -
Fr, 19.10. 0:30 99% 2.2 km
Fr, 19.10. 0:00 96% 3.0 km
Do, 18.10. 23:30 94% 4.3 km
Do, 18.10. 23:00 95% 3.2 km
Do, 18.10. 22:30 94% 3.0 km
Ortszeit Niederschlagsmenge Niederschlagsart
Do, 18.10. 20:00 0.0 l/m2 in 12 Std. -
Do, 18.10. 14:00 0.0 l/m2 in 6 Std. -
Do, 18.10. 8:00 0.0 l/m2 in 12 Std. -
Do, 18.10. 2:00 0.0 l/m2 in 6 Std. -
Mi, 17.10. 20:00 0.0 l/m2 in 12 Std. -
Mi, 17.10. 14:00 0.0 l/m2 in 6 Std. -
Mi, 17.10. 8:00 0.0 l/m2 in 12 Std. -
Mi, 17.10. 2:00 0.0 l/m2 in 6 Std. -
Ortszeit Niederschlagsmenge Niederschlagsart
Fr, 19.10. 1:30 0.0 l/m2 in 1 Std. -
Fr, 19.10. 1:20 keine Meldung -
Fr, 19.10. 1:10 keine Meldung -
Fr, 19.10. 1:00 0.0 l/m2 in 1 Std. -
Fr, 19.10. 0:50 keine Meldung -
Fr, 19.10. 0:40 keine Meldung -
Fr, 19.10. 0:30 0.0 l/m2 in 1 Std. -
Fr, 19.10. 0:00 0.0 l/m2 in 1 Std. -
Do, 18.10. 23:30 0.0 l/m2 in 1 Std. -
Do, 18.10. 23:00 0.0 l/m2 in 1 Std. -
Do, 18.10. 22:30 0.0 l/m2 in 1 Std. -
Ortszeit Stärke Spitze Richtung
km/h Bft. km/h Grad Sektor
Do, 18.10. 20:00 11 2 32 40° NO
Do, 18.10. 14:00 14 3 22 350° N
Do, 18.10. 8:00 0 0 7 - -
Do, 18.10. 2:00 2 1 11 170° S
Mi, 17.10. 20:00 6 1 17 90° O
Mi, 17.10. 14:00 7 2 11 20° N
Mi, 17.10. 8:00 4 1 11 190° S
Mi, 17.10. 2:00 7 2 11 240° SW
Ortszeit Stärke Spitze Richtung
km/h Bft. km/h Grad Sektor
Fr, 19.10. 1:30 9 2 19 30° NO
Fr, 19.10. 1:20 9 2 - 30° NO
Fr, 19.10. 1:10 7 2 - 30° NO
Fr, 19.10. 1:00 9 2 24 30° NO
Fr, 19.10. 0:50 9 2 - 30° NO
Fr, 19.10. 0:40 7 2 - 30° NO
Fr, 19.10. 0:30 9 2 24 40° NO
Fr, 19.10. 0:00 11 2 22 40° NO
Do, 18.10. 23:30 9 2 17 30° NO
Do, 18.10. 23:00 7 2 18 40° NO
Do, 18.10. 22:30 11 2 18 40° NO
Ortszeit Untergrenze Bedeckung Gattung
total tief tief mittel hoch
Do, 18.10. 20:00 180 m 8/8 8/8 - - -
Do, 18.10. 14:00 690 m 7/8 7/8 - - -
Do, 18.10. 8:00 840 m 8/8 8/8 - - -
Do, 18.10. 2:00 - 0/8 0/8 - - -
Mi, 17.10. 20:00 2100 m 1/8 1/8 - - -
Mi, 17.10. 14:00 3000 m 2/8 2/8 - - -
Mi, 17.10. 8:00 3000 m 1/8 1/8 - - -
Mi, 17.10. 2:00 2700 m 7/8 4/8 - - -
Ortszeit Bedeckungsgrad in Achtel und Wolkenuntergrenze
Fr, 19.10. 1:30 8(120m)
Fr, 19.10. 1:20 8(120m)
Fr, 19.10. 1:10 8(120m)
Fr, 19.10. 1:00 8(120m)
Fr, 19.10. 0:50 8(120m)
Fr, 19.10. 0:40 8(90m)
Fr, 19.10. 0:30 8(60m)
Fr, 19.10. 0:00 8(120m)
Do, 18.10. 23:30 7(180m)
Do, 18.10. 23:00 8(150m)
Do, 18.10. 22:30 8(150m)
Ortszeit Luftdruck NN (hPa) Tendenz (hPa in 3 Std.)
Do, 18.10. 20:00 1023 + 1,1
Do, 18.10. 14:00 1020 - 0,3
Do, 18.10. 8:00 1021 + 0,8
Do, 18.10. 2:00 1021 - 0,1
Mi, 17.10. 20:00 1019 + 0,7
Mi, 17.10. 14:00 1018 - 0,7
Mi, 17.10. 8:00 1021 + 0,3
Mi, 17.10. 2:00 1020 - 0,4
Ortszeit Luftdruck NN (hPa) Tendenz (hPa in 3 Std.)
Fr, 19.10. 1:30 1024 - 0,2
Fr, 19.10. 1:20 1024 keine Meldung
Fr, 19.10. 1:10 1024 keine Meldung
Fr, 19.10. 1:00 1024 - 0,1
Fr, 19.10. 0:50 1024 keine Meldung
Fr, 19.10. 0:40 1024 keine Meldung
Fr, 19.10. 0:30 1024 + 0,3
Fr, 19.10. 0:00 1024 + 0,4
Do, 18.10. 23:30 1024 + 0,8
Do, 18.10. 23:00 1024 + 1,0
Do, 18.10. 22:30 1024 + 1,1
Ortszeit Schneehöhe (cm)
Do, 18.10. 20:00 0
Do, 18.10. 14:00 0
Do, 18.10. 8:00 0
Do, 18.10. 2:00 0
Mi, 17.10. 20:00 0
Mi, 17.10. 14:00 0
Mi, 17.10. 8:00 0
Mi, 17.10. 2:00 0
Ortszeit Schneehöhe (cm)
Fr, 19.10. 1:30 0
Fr, 19.10. 1:20 0
Fr, 19.10. 1:10 0
Fr, 19.10. 1:00 0
Fr, 19.10. 0:50 0
Fr, 19.10. 0:40 0
Fr, 19.10. 0:30 0
Fr, 19.10. 0:00 0
Do, 18.10. 23:30 0
Do, 18.10. 23:00 0
Do, 18.10. 22:30 0
Link zu dieser Seite / Seite empfehlen

Das Wetter in ...